sensor_id;sensor_type;location;lat;lon;timestamp;temperature;humidity
12374;DHT22;6251;51.762;8.660;2023-07-28T01:10:11;17.20;99.90
12374;DHT22;6251;51.762;8.660;2023-07-28T02:53:08;16.90;99.90
12374;DHT22;6251;51.762;8.660;2023-07-28T04:04:19;16.90;99.90
12374;DHT22;6251;51.762;8.660;2023-07-28T04:14:20;16.90;99.90
12374;DHT22;6251;51.762;8.660;2023-07-28T04:24:20;16.90;99.90
12374;DHT22;6251;51.762;8.660;2023-07-28T04:34:21;17.00;99.90
12374;DHT22;6251;51.762;8.660;2023-07-28T04:44:21;17.00;99.90
12374;DHT22;6251;51.762;8.660;2023-07-28T04:54:22;17.10;99.90
12374;DHT22;6251;51.762;8.660;2023-07-28T05:04:22;17.10;99.90
12374;DHT22;6251;51.762;8.660;2023-07-28T05:14:23;17.20;99.90
12374;DHT22;6251;51.762;8.660;2023-07-28T05:24:24;17.30;99.90
12374;DHT22;6251;51.762;8.660;2023-07-28T05:34:24;17.30;99.90
12374;DHT22;6251;51.762;8.660;2023-07-28T05:44:25;17.50;99.90
12374;DHT22;6251;51.762;8.660;2023-07-28T05:54:25;17.60;99.90
12374;DHT22;6251;51.762;8.660;2023-07-28T06:04:26;17.80;99.90
12374;DHT22;6251;51.762;8.660;2023-07-28T06:14:26;17.90;99.90
12374;DHT22;6251;51.762;8.660;2023-07-28T06:24:27;18.20;99.90
12374;DHT22;6251;51.762;8.660;2023-07-28T06:34:28;18.40;99.90
12374;DHT22;6251;51.762;8.660;2023-07-28T06:44:28;18.40;99.90
12374;DHT22;6251;51.762;8.660;2023-07-28T06:54:36;18.60;99.90
12374;DHT22;6251;51.762;8.660;2023-07-28T07:04:36;18.70;99.90
12374;DHT22;6251;51.762;8.660;2023-07-28T07:14:37;18.80;99.90
12374;DHT22;6251;51.762;8.660;2023-07-28T07:24:38;18.80;99.90
12374;DHT22;6251;51.762;8.660;2023-07-28T07:34:38;18.80;99.90
12374;DHT22;6251;51.762;8.660;2023-07-28T07:44:39;18.90;99.90
12374;DHT22;6251;51.762;8.660;2023-07-28T07:54:40;19.00;99.90
12374;DHT22;6251;51.762;8.660;2023-07-28T08:04:40;19.10;99.90
12374;DHT22;6251;51.762;8.660;2023-07-28T08:14:41;19.50;99.90
12374;DHT22;6251;51.762;8.660;2023-07-28T08:24:42;20.00;99.90
12374;DHT22;6251;51.762;8.660;2023-07-28T08:34:42;20.00;99.90
12374;DHT22;6251;51.762;8.660;2023-07-28T08:45:03;19.90;99.90
12374;DHT22;6251;51.762;8.660;2023-07-28T08:55:05;20.00;99.90
12374;DHT22;6251;51.762;8.660;2023-07-28T09:05:07;20.20;99.90
12374;DHT22;6251;51.762;8.660;2023-07-28T09:15:15;20.20;99.90
12374;DHT22;6251;51.762;8.660;2023-07-28T09:25:16;20.00;99.90
12374;DHT22;6251;51.762;8.660;2023-07-28T09:35:18;20.00;99.90
12374;DHT22;6251;51.762;8.660;2023-07-28T09:45:19;20.30;99.90
12374;DHT22;6251;51.762;8.660;2023-07-28T09:55:20;20.70;99.90
12374;DHT22;6251;51.762;8.660;2023-07-28T10:05:20;21.10;99.90
12374;DHT22;6251;51.762;8.660;2023-07-28T10:15:28;21.40;99.90
12374;DHT22;6251;51.762;8.660;2023-07-28T10:25:32;21.20;99.90
12374;DHT22;6251;51.762;8.660;2023-07-28T10:35:34;21.30;99.90
12374;DHT22;6251;51.762;8.660;2023-07-28T10:45:34;22.10;99.90
12374;DHT22;6251;51.762;8.660;2023-07-28T10:55:35;22.90;99.90
12374;DHT22;6251;51.762;8.660;2023-07-28T11:05:35;23.00;99.90
12374;DHT22;6251;51.762;8.660;2023-07-28T11:15:39;23.20;99.90
12374;DHT22;6251;51.762;8.660;2023-07-28T11:26:10;23.20;99.90
12374;DHT22;6251;51.762;8.660;2023-07-28T11:36:12;22.90;99.90
12374;DHT22;6251;51.762;8.660;2023-07-28T11:46:38;23.10;99.90
12374;DHT22;6251;51.762;8.660;2023-07-28T11:57:07;23.60;99.90
12374;DHT22;6251;51.762;8.660;2023-07-28T12:07:15;23.40;99.90
12374;DHT22;6251;51.762;8.660;2023-07-28T12:17:19;24.10;99.90
12374;DHT22;6251;51.762;8.660;2023-07-28T12:27:20;24.40;99.90
12374;DHT22;6251;51.762;8.660;2023-07-28T12:37:23;24.90;99.90
12374;DHT22;6251;51.762;8.660;2023-07-28T12:47:24;24.30;99.90
12374;DHT22;6251;51.762;8.660;2023-07-28T12:57:25;24.40;99.90
12374;DHT22;6251;51.762;8.660;2023-07-28T13:07:25;25.30;99.90
12374;DHT22;6251;51.762;8.660;2023-07-28T13:17:26;26.00;99.90
12374;DHT22;6251;51.762;8.660;2023-07-28T13:27:27;25.90;99.90
12374;DHT22;6251;51.762;8.660;2023-07-28T13:37:27;25.50;99.90
12374;DHT22;6251;51.762;8.660;2023-07-28T13:47:28;25.40;99.90
12374;DHT22;6251;51.762;8.660;2023-07-28T13:57:28;25.50;99.90
12374;DHT22;6251;51.762;8.660;2023-07-28T14:07:35;25.80;99.90
12374;DHT22;6251;51.762;8.660;2023-07-28T14:17:36;26.20;99.90
12374;DHT22;6251;51.762;8.660;2023-07-28T14:27:36;26.70;99.90
12374;DHT22;6251;51.762;8.660;2023-07-28T14:37:37;26.20;99.90
12374;DHT22;6251;51.762;8.660;2023-07-28T14:47:38;26.00;99.90
12374;DHT22;6251;51.762;8.660;2023-07-28T14:57:38;25.90;99.90
12374;DHT22;6251;51.762;8.660;2023-07-28T15:07:39;26.40;99.90
12374;DHT22;6251;51.762;8.660;2023-07-28T15:17:39;26.70;99.90
12374;DHT22;6251;51.762;8.660;2023-07-28T15:27:43;26.80;99.90
12374;DHT22;6251;51.762;8.660;2023-07-28T15:37:45;26.50;99.90
12374;DHT22;6251;51.762;8.660;2023-07-28T15:47:45;26.50;99.90
12374;DHT22;6251;51.762;8.660;2023-07-28T15:57:46;27.10;99.90
12374;DHT22;6251;51.762;8.660;2023-07-28T16:07:47;33.50;96.90
12374;DHT22;6251;51.762;8.660;2023-07-28T16:17:54;37.20;80.80
12374;DHT22;6251;51.762;8.660;2023-07-28T16:27:55;38.90;76.00
12374;DHT22;6251;51.762;8.660;2023-07-28T16:37:55;40.70;67.90
12374;DHT22;6251;51.762;8.660;2023-07-28T16:47:56;37.90;66.80
12374;DHT22;6251;51.762;8.660;2023-07-28T16:57:57;34.20;72.80
12374;DHT22;6251;51.762;8.660;2023-07-28T17:07:57;31.30;82.10
12374;DHT22;6251;51.762;8.660;2023-07-28T17:17:58;33.30;83.60
12374;DHT22;6251;51.762;8.660;2023-07-28T17:27:58;32.70;84.30
12374;DHT22;6251;51.762;8.660;2023-07-28T17:37:59;30.00;87.50
12374;DHT22;6251;51.762;8.660;2023-07-28T17:48:04;28.20;92.60
12374;DHT22;6251;51.762;8.660;2023-07-28T17:58:06;27.20;97.10
12374;DHT22;6251;51.762;8.660;2023-07-28T18:08:07;26.40;99.00
12374;DHT22;6251;51.762;8.660;2023-07-28T18:18:12;25.70;99.90
12374;DHT22;6251;51.762;8.660;2023-07-28T18:28:12;24.90;99.90
12374;DHT22;6251;51.762;8.660;2023-07-28T18:38:13;24.30;99.90
12374;DHT22;6251;51.762;8.660;2023-07-28T18:48:14;24.00;99.90
12374;DHT22;6251;51.762;8.660;2023-07-28T18:58:20;23.60;99.90
12374;DHT22;6251;51.762;8.660;2023-07-28T19:08:21;23.20;99.90
12374;DHT22;6251;51.762;8.660;2023-07-28T19:18:22;22.90;99.90
12374;DHT22;6251;51.762;8.660;2023-07-28T19:28:23;22.70;99.90
12374;DHT22;6251;51.762;8.660;2023-07-28T19:38:23;22.40;99.90
12374;DHT22;6251;51.762;8.660;2023-07-28T19:48:24;22.10;99.90
12374;DHT22;6251;51.762;8.660;2023-07-28T19:58:24;21.90;99.90
12374;DHT22;6251;51.762;8.660;2023-07-28T20:08:25;21.60;99.90
12374;DHT22;6251;51.762;8.660;2023-07-28T20:18:26;21.50;99.90
12374;DHT22;6251;51.762;8.660;2023-07-28T20:28:26;21.30;99.90
12374;DHT22;6251;51.762;8.660;2023-07-28T20:38:27;21.10;99.90
12374;DHT22;6251;51.762;8.660;2023-07-28T20:48:27;20.90;99.90
12374;DHT22;6251;51.762;8.660;2023-07-28T20:58:28;20.80;99.90
12374;DHT22;6251;51.762;8.660;2023-07-28T23:00:23;18.10;99.90
12374;DHT22;6251;51.762;8.660;2023-07-28T23:10:23;18.20;99.90
